Time;durP1;ratioP1;P1;durP2;ratioP2;P2;SDS_P1;SDS_P2;PMS_P1;PMS_P2;Temp;Humidity;BMP_temperature;BMP_pressure;BME280_temperature;BME280_humidity;BME280_pressure;Samples;Min_cycle;Max_cycle;Signal;HPM_P1;HPM_P2
2022/03/23 00:01:12;;;;;;;27.95;12.23;;;;;;;;;;4993618;28;20415;-74
2022/03/23 00:03:37;;;;;;;27.05;12.50;;;;;;;;;;4985941;28;20035;-75
2022/03/23 00:06:04;;;;;;;28.52;12.45;;;;;;;;;;4986949;28;20030;-74
2022/03/23 00:08:29;;;;;;;25.95;11.55;;;;;;;;;;4992666;28;20034;-73
2022/03/23 00:10:55;;;;;;;27.00;12.60;;;;;;;;;;5008438;28;20455;-74
2022/03/23 00:13:20;;;;;;;27.55;11.82;;;;;;;;;;4990914;28;20130;-74
2022/03/23 00:15:46;;;;;;;23.52;11.00;;;;;;;;;;4989726;28;20125;-73
2022/03/23 00:18:12;;;;;;;23.98;11.30;;;;;;;;;;4990933;28;20027;-73
2022/03/23 00:20:39;;;;;;;30.58;12.32;;;;;;;;;;5009316;28;20030;-73
2022/03/23 00:23:04;;;;;;;30.67;12.57;;;;;;;;;;5010586;28;20042;-73
2022/03/23 00:25:30;;;;;;;30.55;13.05;;;;;;;;;;4993333;28;20100;-73
2022/03/23 00:27:55;;;;;;;28.75;12.40;;;;;;;;;;5003330;28;20608;-73
2022/03/23 00:30:21;;;;;;;27.60;12.65;;;;;;;;;;5010594;28;20034;-73
2022/03/23 00:32:50;;;;;;;25.80;11.43;;;;;;;;;;5008695;28;20033;-73
2022/03/23 00:35:15;;;;;;;25.40;11.43;;;;;;;;;;5010187;28;20550;-73
2022/03/23 00:37:43;;;;;;;27.20;11.63;;;;;;;;;;5006776;28;20057;-73
2022/03/23 00:40:09;;;;;;;25.63;11.43;;;;;;;;;;5006084;28;20042;-74
2022/03/23 00:42:34;;;;;;;24.75;11.38;;;;;;;;;;5005348;28;20534;-73
2022/03/23 00:44:59;;;;;;;23.83;10.93;;;;;;;;;;5009745;28;20060;-74
2022/03/23 00:47:25;;;;;;;26.70;10.82;;;;;;;;;;5009382;28;20037;-73
2022/03/23 00:49:50;;;;;;;21.35;10.25;;;;;;;;;;5009947;28;20060;-73
2022/03/23 00:52:16;;;;;;;23.42;10.77;;;;;;;;;;5009710;28;20088;-74
2022/03/23 00:54:41;;;;;;;26.55;11.27;;;;;;;;;;5008333;28;20538;-74
2022/03/23 00:57:07;;;;;;;27.45;11.23;;;;;;;;;;5013998;28;20103;-73
2022/03/23 00:59:33;;;;;;;27.40;11.43;;;;;;;;;;4995068;28;20049;-74
2022/03/23 01:01:59;;;;;;;26.35;11.75;;;;;;;;;;4989003;28;20046;-73
2022/03/23 01:04:25;;;;;;;26.90;11.48;;;;;;;;;;4990650;28;20015;-74
2022/03/23 01:06:54;;;;;;;29.25;11.68;;;;;;;;;;4998582;28;20038;-74
2022/03/23 01:09:23;;;;;;;26.92;11.68;;;;;;;;;;5009269;28;20066;-73
2022/03/23 01:11:54;;;;;;;24.33;12.48;;;;;;;;;;5009563;28;20026;-74
2022/03/23 01:14:22;;;;;;;24.83;12.15;;;;;;;;;;4997537;28;20034;-73
2022/03/23 01:16:50;;;;;;;27.23;12.82;;;;;;;;;;4998312;28;20045;-74
2022/03/23 01:19:17;;;;;;;31.85;13.23;;;;;;;;;;4989011;28;20045;-73
2022/03/23 01:21:43;;;;;;;29.80;12.38;;;;;;;;;;4989215;28;20034;-73
2022/03/23 01:24:08;;;;;;;29.40;12.70;;;;;;;;;;4989784;28;20041;-73
2022/03/23 01:26:34;;;;;;;27.15;12.43;;;;;;;;;;4989918;28;20035;-73
2022/03/23 01:28:59;;;;;;;32.53;14.80;;;;;;;;;;5011117;28;20034;-73
2022/03/23 01:31:25;;;;;;;24.85;11.95;;;;;;;;;;5004123;28;20033;-73
2022/03/23 01:33:50;;;;;;;26.83;12.65;;;;;;;;;;4989691;28;20070;-74
2022/03/23 01:36:16;;;;;;;25.92;12.43;;;;;;;;;;5003087;28;20081;-73
2022/03/23 01:38:41;;;;;;;33.42;14.07;;;;;;;;;;4999830;28;20370;-73
2022/03/23 01:41:06;;;;;;;28.58;12.98;;;;;;;;;;4992890;28;20055;-73
2022/03/23 01:43:33;;;;;;;25.42;11.95;;;;;;;;;;5009205;28;20057;-73
2022/03/23 01:46:00;;;;;;;28.00;13.13;;;;;;;;;;4997465;28;20034;-73
2022/03/23 01:48:25;;;;;;;30.60;13.15;;;;;;;;;;4995615;28;20496;-73
2022/03/23 01:50:50;;;;;;;34.15;14.00;;;;;;;;;;4992998;28;20038;-73
2022/03/23 01:53:16;;;;;;;29.13;13.50;;;;;;;;;;4989012;28;20125;-73
2022/03/23 01:55:41;;;;;;;35.17;12.90;;;;;;;;;;5015913;28;20533;-73
2022/03/23 01:58:06;;;;;;;30.80;13.70;;;;;;;;;;4988761;28;20416;-74
2022/03/23 02:00:32;;;;;;;28.50;12.57;;;;;;;;;;4988703;28;20050;-75
2022/03/23 02:02:58;;;;;;;33.22;13.70;;;;;;;;;;4988149;28;20065;-73
2022/03/23 02:05:23;;;;;;;29.02;13.50;;;;;;;;;;4988532;28;20046;-73
2022/03/23 02:07:50;;;;;;;31.40;13.38;;;;;;;;;;4988999;28;20064;-73
2022/03/23 02:10:16;;;;;;;29.88;12.60;;;;;;;;;;4988918;28;20594;-74
2022/03/23 02:12:43;;;;;;;27.25;12.52;;;;;;;;;;4996137;28;20057;-74
2022/03/23 02:15:17;;;;;;;31.38;12.65;;;;;;;;;;5009409;28;20045;-73
2022/03/23 02:17:44;;;;;;;27.95;13.15;;;;;;;;;;5008180;28;20036;-73
2022/03/23 02:20:11;;;;;;;30.08;13.35;;;;;;;;;;5004765;28;20125;-73
2022/03/23 02:22:36;;;;;;;30.60;13.45;;;;;;;;;;4989604;28;20026;-73
2022/03/23 02:25:02;;;;;;;31.30;13.50;;;;;;;;;;4992967;28;20522;-73
2022/03/23 02:27:28;;;;;;;27.35;12.35;;;;;;;;;;5000301;28;21262;-74
2022/03/23 02:29:53;;;;;;;33.67;13.88;;;;;;;;;;5004232;28;20176;-73
2022/03/23 02:32:19;;;;;;;31.60;14.45;;;;;;;;;;4987996;28;20039;-73
2022/03/23 02:34:45;;;;;;;34.88;14.18;;;;;;;;;;4991643;28;20022;-74
2022/03/23 02:37:10;;;;;;;29.90;14.10;;;;;;;;;;4995748;28;20077;-73
2022/03/23 02:39:36;;;;;;;29.58;13.60;;;;;;;;;;5009034;28;20052;-73
2022/03/23 02:42:02;;;;;;;34.20;13.18;;;;;;;;;;5007988;28;20084;-73
2022/03/23 02:44:29;;;;;;;30.08;13.88;;;;;;;;;;5000568;28;20578;-73
2022/03/23 02:46:55;;;;;;;30.05;13.50;;;;;;;;;;5009034;28;20029;-73
2022/03/23 02:49:20;;;;;;;30.60;13.60;;;;;;;;;;5007488;28;20038;-73
2022/03/23 02:51:49;;;;;;;27.65;12.70;;;;;;;;;;5008354;28;20504;-73
2022/03/23 03:02:43;;;;;;;28.05;12.35;;;;;;;;;;4988211;28;20046;-73
2022/03/23 03:05:10;;;;;;;27.70;12.63;;;;;;;;;;4987397;28;20034;-73
2022/03/23 03:10:22;;;;;;;28.17;13.15;;;;;;;;;;4988570;28;20038;-74
2022/03/23 03:12:49;;;;;;;32.25;13.57;;;;;;;;;;4988715;28;20428;-75
2022/03/23 03:15:15;;;;;;;27.75;13.05;;;;;;;;;;4987884;28;20100;-73
2022/03/23 03:17:41;;;;;;;32.33;13.65;;;;;;;;;;4988474;28;20038;-75
2022/03/23 03:20:07;;;;;;;22.27;10.57;;;;;;;;;;4987680;28;20026;-74
2022/03/23 03:22:40;;;;;;;23.88;10.07;;;;;;;;;;4988575;28;20030;-74
2022/03/23 03:25:07;;;;;;;28.17;11.73;;;;;;;;;;4993582;28;20046;-73
2022/03/23 03:27:36;;;;;;;24.63;11.48;;;;;;;;;;4996861;28;20033;-74
2022/03/23 03:30:06;;;;;;;30.23;10.93;;;;;;;;;;5008094;28;20080;-73
2022/03/23 03:32:32;;;;;;;31.38;13.15;;;;;;;;;;4988605;28;20034;-73
2022/03/23 03:34:58;;;;;;;29.58;12.68;;;;;;;;;;5003102;28;20080;-73
2022/03/23 03:37:24;;;;;;;31.00;12.35;;;;;;;;;;5008408;28;20030;-73
2022/03/23 03:39:49;;;;;;;35.45;14.65;;;;;;;;;;5007845;28;20477;-73
2022/03/23 03:42:15;;;;;;;36.83;13.07;;;;;;;;;;4999184;28;20115;-73
2022/03/23 03:44:41;;;;;;;30.33;12.00;;;;;;;;;;5004868;28;20042;-73
2022/03/23 03:47:06;;;;;;;31.40;13.45;;;;;;;;;;4992300;28;20030;-73
2022/03/23 03:49:31;;;;;;;30.35;13.43;;;;;;;;;;4992996;28;20502;-73
2022/03/23 03:51:58;;;;;;;31.25;12.50;;;;;;;;;;4992012;28;20046;-75
2022/03/23 03:54:23;;;;;;;28.60;13.68;;;;;;;;;;4997388;28;20049;-73
2022/03/23 03:56:48;;;;;;;29.25;12.07;;;;;;;;;;5013403;28;20704;-74
2022/03/23 03:59:14;;;;;;;27.73;13.32;;;;;;;;;;4998960;28;20109;-73
2022/03/23 04:01:39;;;;;;;25.45;12.60;;;;;;;;;;4992798;28;20046;-73
2022/03/23 04:04:04;;;;;;;28.75;12.48;;;;;;;;;;4992551;28;20081;-73
2022/03/23 04:06:30;;;;;;;33.70;13.77;;;;;;;;;;4991945;28;20081;-73
2022/03/23 04:08:55;;;;;;;46.25;17.15;;;;;;;;;;4992402;28;20038;-73
2022/03/23 04:11:20;;;;;;;41.60;16.23;;;;;;;;;;4991920;28;20145;-73
2022/03/23 04:13:46;;;;;;;34.05;14.70;;;;;;;;;;4991259;28;20160;-74
2022/03/23 04:16:11;;;;;;;32.10;13.50;;;;;;;;;;4991591;28;20116;-73
2022/03/23 04:18:37;;;;;;;54.13;19.98;;;;;;;;;;4998797;28;20034;-73
2022/03/23 04:21:02;;;;;;;56.70;18.60;;;;;;;;;;4991707;28;20081;-73
2022/03/23 04:23:27;;;;;;;40.65;15.18;;;;;;;;;;4992051;28;20437;-73
2022/03/23 04:25:53;;;;;;;41.22;15.57;;;;;;;;;;4995922;28;20491;-73
2022/03/23 04:28:20;;;;;;;45.85;17.58;;;;;;;;;;5017908;28;20041;-73
2022/03/23 04:30:46;;;;;;;43.40;16.55;;;;;;;;;;5011108;28;20046;-73
2022/03/23 04:33:12;;;;;;;41.72;15.90;;;;;;;;;;4994829;28;20042;-74
2022/03/23 04:35:37;;;;;;;49.25;17.48;;;;;;;;;;4990714;28;20531;-73
2022/03/23 04:38:02;;;;;;;38.17;14.77;;;;;;;;;;4991509;28;20480;-73
2022/03/23 04:40:28;;;;;;;40.70;13.75;;;;;;;;;;4993860;28;20125;-73
2022/03/23 04:42:54;;;;;;;37.00;14.35;;;;;;;;;;5011545;28;20177;-74
2022/03/23 04:45:19;;;;;;;39.28;14.32;;;;;;;;;;5019675;28;20115;-73
2022/03/23 04:47:45;;;;;;;40.45;15.02;;;;;;;;;;5012632;28;20792;-73
2022/03/23 04:50:12;;;;;;;36.22;14.15;;;;;;;;;;4995139;28;20069;-73
2022/03/23 04:52:40;;;;;;;38.88;13.75;;;;;;;;;;4990536;28;20455;-73
2022/03/23 04:55:07;;;;;;;32.63;13.25;;;;;;;;;;5013355;28;20029;-73
2022/03/23 04:57:32;;;;;;;34.38;13.60;;;;;;;;;;5007573;28;20133;-73
2022/03/23 04:59:58;;;;;;;30.95;13.85;;;;;;;;;;4990979;28;20484;-73
2022/03/23 05:02:25;;;;;;;36.17;13.02;;;;;;;;;;4999055;28;20580;-73
2022/03/23 05:04:51;;;;;;;35.20;14.18;;;;;;;;;;4992323;28;20038;-73
2022/03/23 05:07:16;;;;;;;34.38;13.55;;;;;;;;;;5005916;28;20774;-73
2022/03/23 05:09:41;;;;;;;34.83;13.02;;;;;;;;;;5007698;28;20057;-73
2022/03/23 05:12:07;;;;;;;38.17;14.05;;;;;;;;;;5002424;28;20042;-73
2022/03/23 05:14:32;;;;;;;37.05;13.75;;;;;;;;;;5010153;28;20113;-73
2022/03/23 05:16:58;;;;;;;35.30;13.68;;;;;;;;;;4999786;28;20103;-73
2022/03/23 05:19:23;;;;;;;30.60;13.40;;;;;;;;;;5009280;28;20372;-74
2022/03/23 05:21:49;;;;;;;37.28;14.93;;;;;;;;;;5005217;28;20453;-74
2022/03/23 05:24:14;;;;;;;36.33;13.93;;;;;;;;;;5006506;28;20041;-73
2022/03/23 05:26:39;;;;;;;35.60;14.82;;;;;;;;;;4999667;28;20041;-73
2022/03/23 05:29:05;;;;;;;31.17;13.98;;;;;;;;;;5010714;28;20105;-73
2022/03/23 05:31:30;;;;;;;38.40;14.35;;;;;;;;;;5009545;28;20033;-73
2022/03/23 05:33:55;;;;;;;36.78;14.23;;;;;;;;;;5008992;28;20034;-73
2022/03/23 05:36:21;;;;;;;36.08;14.13;;;;;;;;;;5006436;28;20081;-73
2022/03/23 05:38:46;;;;;;;36.42;14.73;;;;;;;;;;4997465;28;20141;-73
2022/03/23 05:41:11;;;;;;;40.05;14.73;;;;;;;;;;4997973;28;20068;-73
2022/03/23 05:43:37;;;;;;;40.22;16.55;;;;;;;;;;5009985;28;20033;-73
2022/03/23 05:46:02;;;;;;;47.10;17.83;;;;;;;;;;5007893;28;20042;-73
2022/03/23 05:48:28;;;;;;;43.67;17.08;;;;;;;;;;4998194;28;20049;-73
2022/03/23 05:50:53;;;;;;;47.08;17.75;;;;;;;;;;5004607;28;20042;-73
2022/03/23 05:53:18;;;;;;;52.05;17.55;;;;;;;;;;4996353;28;20042;-73
2022/03/23 05:55:43;;;;;;;46.50;16.23;;;;;;;;;;5004964;28;20026;-73
2022/03/23 05:58:09;;;;;;;48.47;19.90;;;;;;;;;;4994367;28;20131;-73
2022/03/23 06:00:35;;;;;;;52.85;20.02;;;;;;;;;;4998749;28;20054;-74
2022/03/23 06:03:00;;;;;;;38.58;16.58;;;;;;;;;;4991198;28;20034;-74
2022/03/23 06:05:25;;;;;;;44.33;17.98;;;;;;;;;;5007138;28;20034;-73
2022/03/23 06:07:51;;;;;;;46.83;18.58;;;;;;;;;;4995034;28;20207;-73
2022/03/23 06:10:16;;;;;;;51.00;20.35;;;;;;;;;;5002840;28;20045;-74
2022/03/23 06:12:41;;;;;;;48.58;19.13;;;;;;;;;;4992906;28;20044;-73
2022/03/23 06:15:10;;;;;;;48.45;18.85;;;;;;;;;;4998697;28;20030;-73
2022/03/23 06:17:36;;;;;;;37.50;17.77;;;;;;;;;;4990549;28;20034;-74
2022/03/23 06:20:03;;;;;;;42.88;16.50;;;;;;;;;;5004671;28;20376;-73
2022/03/23 06:22:28;;;;;;;39.28;15.07;;;;;;;;;;4999282;28;20075;-73
2022/03/23 06:24:53;;;;;;;37.33;16.52;;;;;;;;;;5008990;28;20034;-74
2022/03/23 06:27:19;;;;;;;37.88;15.70;;;;;;;;;;5008656;28;20044;-74
2022/03/23 06:29:44;;;;;;;39.03;15.75;;;;;;;;;;5009408;28;20038;-74
2022/03/23 06:32:10;;;;;;;39.88;14.77;;;;;;;;;;5004312;28;20033;-73
2022/03/23 06:34:35;;;;;;;34.38;14.30;;;;;;;;;;5007849;28;20167;-73
2022/03/23 06:37:01;;;;;;;35.70;15.07;;;;;;;;;;5008837;28;20100;-73
2022/03/23 06:39:31;;;;;;;37.10;14.68;;;;;;;;;;5009015;28;20323;-73
2022/03/23 06:41:56;;;;;;;33.97;14.20;;;;;;;;;;5008723;28;20034;-73
2022/03/23 06:44:22;;;;;;;36.40;14.65;;;;;;;;;;5009038;28;20038;-73
2022/03/23 06:46:47;;;;;;;35.95;13.75;;;;;;;;;;5001350;28;20030;-73
2022/03/23 06:49:12;;;;;;;32.85;12.88;;;;;;;;;;4992308;28;20157;-74
2022/03/23 06:51:38;;;;;;;33.17;13.57;;;;;;;;;;5003387;28;20053;-74
2022/03/23 06:54:03;;;;;;;31.33;12.35;;;;;;;;;;5020980;28;20452;-73
2022/03/23 06:56:29;;;;;;;32.47;12.43;;;;;;;;;;5008626;28;20037;-73
2022/03/23 06:58:55;;;;;;;35.05;13.73;;;;;;;;;;5007731;28;20026;-73
2022/03/23 07:01:21;;;;;;;37.50;13.18;;;;;;;;;;4991667;28;20053;-73
2022/03/23 07:03:48;;;;;;;35.90;13.98;;;;;;;;;;5007133;28;20038;-73
2022/03/23 07:06:16;;;;;;;35.58;13.13;;;;;;;;;;5005028;28;20037;-72
2022/03/23 07:11:26;;;;;;;49.90;17.52;;;;;;;;;;4994999;28;20080;-72
2022/03/23 07:13:51;;;;;;;54.08;19.27;;;;;;;;;;4997653;28;20030;-72
2022/03/23 07:16:17;;;;;;;52.97;18.50;;;;;;;;;;5004690;28;20038;-73
2022/03/23 07:18:42;;;;;;;48.28;18.73;;;;;;;;;;5004373;28;20030;-72
2022/03/23 07:21:07;;;;;;;44.38;16.85;;;;;;;;;;5001581;28;20039;-72
2022/03/23 07:23:34;;;;;;;52.53;19.42;;;;;;;;;;5001961;28;22004;-72
2022/03/23 07:26:00;;;;;;;38.83;16.27;;;;;;;;;;5001469;28;20033;-72
2022/03/23 07:28:26;;;;;;;35.38;15.75;;;;;;;;;;5006460;28;20021;-73
2022/03/23 07:30:51;;;;;;;48.67;18.15;;;;;;;;;;5006489;28;20038;-72
2022/03/23 07:33:17;;;;;;;45.25;17.60;;;;;;;;;;4995471;28;20068;-72
2022/03/23 07:35:42;;;;;;;43.78;16.77;;;;;;;;;;4985950;28;20427;-72
2022/03/23 07:38:07;;;;;;;45.55;17.98;;;;;;;;;;4987894;28;20426;-72
2022/03/23 07:40:32;;;;;;;39.65;17.23;;;;;;;;;;4990031;28;20101;-72
2022/03/23 07:42:59;;;;;;;45.60;17.33;;;;;;;;;;4987842;28;20427;-72
2022/03/23 07:45:24;;;;;;;43.40;16.92;;;;;;;;;;4987061;28;20054;-72
2022/03/23 07:47:50;;;;;;;47.90;18.50;;;;;;;;;;5001399;28;20099;-72
2022/03/23 07:50:15;;;;;;;42.83;16.10;;;;;;;;;;5006357;28;20026;-72
2022/03/23 07:52:40;;;;;;;50.28;16.85;;;;;;;;;;5016527;28;20026;-72
2022/03/23 07:55:07;;;;;;;38.20;16.05;;;;;;;;;;5026867;28;20458;-72
2022/03/23 07:57:32;;;;;;;44.88;16.20;;;;;;;;;;5012421;28;20042;-72
2022/03/23 07:59:57;;;;;;;44.67;16.88;;;;;;;;;;4981058;28;20046;-73
2022/03/23 08:02:26;;;;;;;42.47;17.17;;;;;;;;;;4990601;28;20061;-74
2022/03/23 08:04:53;;;;;;;48.03;16.33;;;;;;;;;;4986334;28;20514;-74
2022/03/23 08:07:19;;;;;;;43.05;16.25;;;;;;;;;;4992155;28;20053;-73
2022/03/23 08:09:45;;;;;;;44.60;15.27;;;;;;;;;;4988908;28;20050;-75
2022/03/23 08:12:10;;;;;;;41.63;15.32;;;;;;;;;;4992452;28;20065;-71
2022/03/23 08:14:36;;;;;;;35.85;14.75;;;;;;;;;;4994390;28;20050;-72
2022/03/23 08:17:01;;;;;;;38.10;15.15;;;;;;;;;;4997441;28;20034;-72
2022/03/23 08:19:26;;;;;;;40.20;15.65;;;;;;;;;;4999297;28;20194;-70
2022/03/23 08:21:52;;;;;;;38.03;15.20;;;;;;;;;;4984571;28;20042;-75
2022/03/23 08:24:17;;;;;;;43.90;16.95;;;;;;;;;;4982971;28;20049;-72
2022/03/23 08:26:43;;;;;;;41.88;15.70;;;;;;;;;;4985205;28;20682;-73
2022/03/23 08:29:09;;;;;;;33.25;13.73;;;;;;;;;;5004321;28;20403;-71
2022/03/23 08:31:34;;;;;;;44.13;16.15;;;;;;;;;;5002662;28;20034;-73
2022/03/23 08:34:00;;;;;;;42.05;14.80;;;;;;;;;;4984633;28;20045;-73
2022/03/23 08:36:25;;;;;;;40.95;15.18;;;;;;;;;;4993464;28;20038;-75
2022/03/23 08:38:51;;;;;;;36.83;15.15;;;;;;;;;;5003044;28;20096;-74
2022/03/23 08:41:18;;;;;;;43.03;15.25;;;;;;;;;;5000370;28;20076;-76
2022/03/23 08:43:43;;;;;;;33.30;14.35;;;;;;;;;;5010628;28;20033;-77
2022/03/23 08:46:12;;;;;;;41.00;14.20;;;;;;;;;;5027305;28;20063;-75
2022/03/23 08:48:37;;;;;;;35.20;14.00;;;;;;;;;;5008168;28;20057;-76
2022/03/23 08:51:03;;;;;;;43.20;15.32;;;;;;;;;;5003226;28;20101;-76
2022/03/23 08:53:28;;;;;;;41.42;15.18;;;;;;;;;;5016335;28;20046;-77
2022/03/23 08:55:54;;;;;;;36.75;14.32;;;;;;;;;;4987278;28;20054;-77
2022/03/23 08:58:19;;;;;;;41.22;16.02;;;;;;;;;;4985758;28;20046;-75
2022/03/23 09:00:44;;;;;;;37.38;15.10;;;;;;;;;;4994651;28;20084;-74
2022/03/23 09:03:10;;;;;;;41.03;15.05;;;;;;;;;;5005123;28;20050;-75
2022/03/23 09:05:35;;;;;;;41.67;15.77;;;;;;;;;;5006434;28;20085;-74
2022/03/23 09:08:01;;;;;;;37.25;15.10;;;;;;;;;;5004118;28;20037;-73
2022/03/23 09:10:27;;;;;;;44.58;15.90;;;;;;;;;;4994697;28;20417;-73
2022/03/23 09:12:53;;;;;;;43.17;16.35;;;;;;;;;;5006330;28;20037;-74
2022/03/23 09:15:19;;;;;;;38.85;15.05;;;;;;;;;;4989105;28;20046;-75
2022/03/23 09:17:44;;;;;;;40.60;15.32;;;;;;;;;;4985301;28;20637;-73
2022/03/23 09:20:12;;;;;;;38.63;15.57;;;;;;;;;;5002618;28;20105;-75
2022/03/23 09:22:38;;;;;;;37.28;15.88;;;;;;;;;;5001769;28;20021;-73
2022/03/23 09:25:09;;;;;;;37.53;15.38;;;;;;;;;;4996925;28;20045;-73
2022/03/23 09:27:39;;;;;;;39.88;15.65;;;;;;;;;;4995615;28;20549;-73
2022/03/23 09:30:06;;;;;;;48.03;16.77;;;;;;;;;;5012085;28;20136;-73
2022/03/23 09:32:32;;;;;;;35.00;14.98;;;;;;;;;;5004508;28;20515;-73
2022/03/23 09:34:57;;;;;;;35.92;16.63;;;;;;;;;;5005758;28;20036;-73
2022/03/23 09:40:07;;;;;;;38.05;15.27;;;;;;;;;;4995644;28;20045;-72
2022/03/23 09:42:34;;;;;;;36.08;15.63;;;;;;;;;;5004837;28;20044;-74
2022/03/23 09:45:00;;;;;;;38.85;16.98;;;;;;;;;;5004223;28;20133;-76
2022/03/23 09:47:25;;;;;;;38.85;15.15;;;;;;;;;;5004340;28;20033;-77
2022/03/23 09:49:51;;;;;;;36.00;15.45;;;;;;;;;;5000009;28;20569;-73
2022/03/23 09:52:17;;;;;;;36.08;15.20;;;;;;;;;;4993372;28;20782;-73
2022/03/23 09:54:45;;;;;;;38.45;16.10;;;;;;;;;;4994348;28;20066;-71
2022/03/23 09:57:11;;;;;;;31.15;13.90;;;;;;;;;;5005908;28;20056;-71
2022/03/23 09:59:37;;;;;;;41.50;15.70;;;;;;;;;;5002930;28;20144;-71
2022/03/23 10:02:02;;;;;;;38.92;15.50;;;;;;;;;;5002307;28;20125;-75
2022/03/23 10:04:48;;;;;;;34.70;13.18;;;;;;;;;;5003864;28;20412;-75
2022/03/23 10:07:20;;;;;;;29.92;14.40;;;;;;;;;;5006298;28;20396;-76
2022/03/23 10:10:23;;;;;;;24.77;11.02;;;;;;;;;;5001699;28;20075;-74
2022/03/23 10:13:36;;;;;;;27.52;12.45;;;;;;;;;;5004637;28;20049;-75
2022/03/23 10:16:23;;;;;;;28.55;11.98;;;;;;;;;;4996382;28;20054;-73
2022/03/23 10:18:54;;;;;;;29.17;12.02;;;;;;;;;;4997741;28;20567;-75
2022/03/23 10:21:22;;;;;;;26.52;12.40;;;;;;;;;;4996072;28;20076;-74
2022/03/23 10:24:00;;;;;;;29.45;12.05;;;;;;;;;;4994307;28;20072;-74
2022/03/23 10:26:27;;;;;;;26.73;12.20;;;;;;;;;;4995440;28;20054;-72
2022/03/23 10:28:53;;;;;;;32.78;11.75;;;;;;;;;;4993150;28;20620;-74
2022/03/23 10:31:20;;;;;;;24.92;11.73;;;;;;;;;;5007096;28;20069;-73
2022/03/23 10:33:57;;;;;;;30.45;11.35;;;;;;;;;;5023490;28;20103;-73
2022/03/23 10:36:23;;;;;;;27.50;12.15;;;;;;;;;;5013425;28;20041;-71
2022/03/23 10:38:49;;;;;;;28.58;12.25;;;;;;;;;;5005388;28;20045;-70
2022/03/23 10:41:25;;;;;;;25.17;12.20;;;;;;;;;;4999513;28;20041;-73
2022/03/23 10:43:50;;;;;;;28.23;12.68;;;;;;;;;;5011931;28;20038;-73
2022/03/23 10:46:17;;;;;;;26.40;12.27;;;;;;;;;;5004952;28;20046;-73
2022/03/23 10:49:11;;;;;;;23.90;11.88;;;;;;;;;;5000820;28;20042;-71
2022/03/23 10:51:37;;;;;;;34.15;12.85;;;;;;;;;;4995511;28;20695;-72
2022/03/23 10:54:23;;;;;;;28.15;13.60;;;;;;;;;;4983539;28;20069;-73
2022/03/23 10:56:49;;;;;;;36.67;12.75;;;;;;;;;;4995565;28;20384;-74
2022/03/23 10:59:21;;;;;;;29.85;13.00;;;;;;;;;;5002602;28;20022;-72
2022/03/23 11:01:55;;;;;;;29.45;12.05;;;;;;;;;;5016841;28;20041;-70
2022/03/23 11:04:21;;;;;;;37.72;13.45;;;;;;;;;;5000651;28;20897;-70
2022/03/23 11:06:46;;;;;;;32.63;13.23;;;;;;;;;;5004217;28;20033;-71
2022/03/23 11:17:06;;;;;;;30.60;12.98;;;;;;;;;;5004669;28;20034;-69
2022/03/23 11:19:31;;;;;;;30.63;13.65;;;;;;;;;;5005317;28;20430;-70
2022/03/23 11:22:11;;;;;;;28.30;13.40;;;;;;;;;;5004218;28;20037;-70
2022/03/23 11:24:42;;;;;;;26.77;12.43;;;;;;;;;;5005107;28;20118;-71
2022/03/23 11:27:10;;;;;;;33.30;13.65;;;;;;;;;;5009887;28;20063;-70
2022/03/23 11:29:37;;;;;;;33.58;12.85;;;;;;;;;;4997973;28;20040;-70
2022/03/23 11:32:07;;;;;;;30.92;14.15;;;;;;;;;;5003680;28;20101;-69
2022/03/23 11:34:34;;;;;;;32.85;13.75;;;;;;;;;;4984894;28;20057;-70
2022/03/23 11:37:01;;;;;;;28.85;13.75;;;;;;;;;;4984592;28;20038;-70
2022/03/23 11:39:27;;;;;;;32.20;14.25;;;;;;;;;;4985271;28;20041;-70
2022/03/23 11:41:53;;;;;;;30.15;13.30;;;;;;;;;;4998220;28;20567;-70
2022/03/23 11:44:22;;;;;;;29.13;13.88;;;;;;;;;;5000269;28;20634;-76
2022/03/23 11:46:49;;;;;;;29.77;13.20;;;;;;;;;;4984139;28;20412;-77
2022/03/23 11:49:24;;;;;;;35.17;14.25;;;;;;;;;;5005911;28;20574;-75
2022/03/23 11:52:13;;;;;;;27.90;13.38;;;;;;;;;;5005022;28;20061;-70
2022/03/23 11:57:55;;;;;;;27.38;12.93;;;;;;;;;;5003570;28;20096;-70
2022/03/23 12:00:26;;;;;;;33.78;13.60;;;;;;;;;;5003289;28;20592;-70
2022/03/23 12:02:52;;;;;;;29.00;13.20;;;;;;;;;;5003876;28;20065;-71
2022/03/23 12:05:30;;;;;;;28.70;13.32;;;;;;;;;;5002201;28;20519;-73
2022/03/23 12:07:56;;;;;;;28.48;12.68;;;;;;;;;;4997473;28;20062;-71
2022/03/23 12:10:28;;;;;;;26.30;13.25;;;;;;;;;;4989751;28;20108;-71
2022/03/23 12:12:54;;;;;;;28.50;12.30;;;;;;;;;;5009022;28;20041;-70
2022/03/23 12:15:19;;;;;;;31.10;13.45;;;;;;;;;;5001322;28;20038;-71
2022/03/23 12:17:58;;;;;;;31.10;12.93;;;;;;;;;;5003064;28;20052;-70
2022/03/23 12:20:31;;;;;;;35.45;12.80;;;;;;;;;;5002668;28;20076;-71
2022/03/23 12:22:57;;;;;;;29.52;13.52;;;;;;;;;;5000029;28;20026;-71
2022/03/23 12:25:26;;;;;;;29.60;13.13;;;;;;;;;;4995227;28;20072;-71
2022/03/23 12:28:18;;;;;;;25.30;12.60;;;;;;;;;;5004085;28;20054;-73
2022/03/23 12:30:56;;;;;;;27.13;12.32;;;;;;;;;;5001357;28;20042;-74
2022/03/23 12:33:22;;;;;;;28.35;13.00;;;;;;;;;;5004529;28;20450;-73
2022/03/23 12:35:48;;;;;;;29.08;13.98;;;;;;;;;;5009225;28;20042;-78
2022/03/23 12:38:25;;;;;;;32.17;14.38;;;;;;;;;;4994963;28;20068;-74
2022/03/23 12:40:51;;;;;;;29.65;13.13;;;;;;;;;;4999711;28;20026;-73
2022/03/23 12:43:34;;;;;;;29.70;12.77;;;;;;;;;;5009440;28;20157;-70
2022/03/23 12:46:00;;;;;;;25.55;11.68;;;;;;;;;;4996197;28;20050;-72
2022/03/23 12:59:38;;;;;;;30.85;13.88;;;;;;;;;;4990456;28;20050;-76
2022/03/23 13:02:19;;;;;;;27.42;12.75;;;;;;;;;;5004718;28;20049;-73
2022/03/23 13:04:45;;;;;;;27.10;12.88;;;;;;;;;;5006367;28;20522;-73
2022/03/23 13:07:28;;;;;;;26.17;11.80;;;;;;;;;;5005956;28;20050;-73
2022/03/23 13:10:09;;;;;;;31.55;13.30;;;;;;;;;;5006676;28;20487;-73
2022/03/23 13:12:35;;;;;;;29.80;13.25;;;;;;;;;;4983932;28;20542;-74
2022/03/23 13:15:09;;;;;;;26.23;12.55;;;;;;;;;;4989327;28;20034;-73
2022/03/23 13:17:38;;;;;;;24.70;12.15;;;;;;;;;;4987188;28;20038;-73
2022/03/23 13:20:05;;;;;;;24.10;11.95;;;;;;;;;;4990216;28;20038;-72
2022/03/23 13:22:34;;;;;;;26.73;11.40;;;;;;;;;;5011108;28;20033;-72
2022/03/23 13:25:01;;;;;;;25.13;11.68;;;;;;;;;;5004549;28;20041;-71
2022/03/23 13:27:27;;;;;;;22.42;10.88;;;;;;;;;;5008685;28;20423;-72
2022/03/23 13:30:06;;;;;;;23.38;10.80;;;;;;;;;;5004164;28;20545;-73
2022/03/23 13:32:32;;;;;;;27.80;12.88;;;;;;;;;;4996672;28;20043;-73
2022/03/23 13:34:59;;;;;;;26.95;12.02;;;;;;;;;;4986334;28;20026;-72
2022/03/23 13:37:24;;;;;;;27.88;12.10;;;;;;;;;;5003503;28;20030;-71
2022/03/23 13:39:49;;;;;;;26.70;12.15;;;;;;;;;;4999812;28;20069;-71
2022/03/23 13:45:05;;;;;;;25.77;11.25;;;;;;;;;;5005843;28;20589;-72
2022/03/23 13:47:34;;;;;;;23.25;10.45;;;;;;;;;;5004164;28;20038;-74
2022/03/23 13:50:02;;;;;;;23.52;11.35;;;;;;;;;;5006421;28;20037;-74
2022/03/23 13:52:28;;;;;;;23.73;10.80;;;;;;;;;;5006787;28;20064;-73
2022/03/23 13:54:58;;;;;;;27.17;11.10;;;;;;;;;;5005132;28;20420;-74
2022/03/23 13:57:25;;;;;;;22.08;10.25;;;;;;;;;;4989645;28;20038;-72
2022/03/23 13:59:51;;;;;;;17.95;8.75;;;;;;;;;;4983622;28;20065;-72
2022/03/23 14:02:17;;;;;;;16.63;8.85;;;;;;;;;;4996643;28;20547;-75
2022/03/23 14:04:43;;;;;;;20.40;9.20;;;;;;;;;;5007109;28;20041;-72
2022/03/23 14:07:08;;;;;;;16.83;8.65;;;;;;;;;;5004063;28;20092;-74
2022/03/23 14:09:38;;;;;;;18.52;8.30;;;;;;;;;;4997961;28;20432;-77
2022/03/23 14:12:08;;;;;;;17.73;8.50;;;;;;;;;;4997015;28;20618;-75
2022/03/23 14:14:37;;;;;;;26.33;9.77;;;;;;;;;;4992773;28;20389;-74
2022/03/23 14:17:16;;;;;;;18.98;9.13;;;;;;;;;;4993464;28;20563;-74
2022/03/23 14:19:44;;;;;;;16.42;8.63;;;;;;;;;;4992944;28;20030;-74
2022/03/23 14:22:15;;;;;;;19.80;9.30;;;;;;;;;;4995542;28;20049;-75
2022/03/23 14:24:42;;;;;;;18.02;9.23;;;;;;;;;;5006167;28;20049;-75
2022/03/23 14:27:15;;;;;;;17.80;9.30;;;;;;;;;;5004360;28;20121;-71
2022/03/23 14:29:44;;;;;;;14.05;8.63;;;;;;;;;;5000555;28;20037;-72
2022/03/23 14:32:12;;;;;;;18.52;10.00;;;;;;;;;;5002449;28;20041;-72
2022/03/23 14:34:46;;;;;;;18.27;9.07;;;;;;;;;;5001919;28;20022;-75
2022/03/23 14:37:13;;;;;;;18.88;9.65;;;;;;;;;;4997565;28;20152;-79
2022/03/23 14:39:47;;;;;;;18.48;8.93;;;;;;;;;;5003875;28;20157;-74
2022/03/23 14:42:15;;;;;;;19.17;9.10;;;;;;;;;;5005362;28;20547;-74
2022/03/23 14:44:47;;;;;;;16.70;8.98;;;;;;;;;;5011328;28;20050;-75
2022/03/23 14:47:15;;;;;;;19.17;9.40;;;;;;;;;;4999718;28;20037;-76
2022/03/23 14:49:43;;;;;;;21.38;9.90;;;;;;;;;;4998736;28;20036;-76
2022/03/23 14:52:12;;;;;;;22.02;10.00;;;;;;;;;;5003517;28;20042;-76
2022/03/23 14:54:42;;;;;;;18.27;9.43;;;;;;;;;;5005275;28;20084;-76
2022/03/23 14:57:12;;;;;;;18.67;9.45;;;;;;;;;;5005233;28;20038;-77
2022/03/23 14:59:44;;;;;;;16.83;9.10;;;;;;;;;;5002840;28;20084;-76
2022/03/23 15:02:10;;;;;;;18.48;9.27;;;;;;;;;;5008618;28;20748;-72